sensor_id;sensor_type;location;lat;lon;timestamp;pressure;altitude;pressure_sealevel;temperature;humidity
19884;BME280;10104;50.732;10.174;2023-07-13T00:01:34;97679.44;;;19.23;57.45
19884;BME280;10104;50.732;10.174;2023-07-13T00:03:56;97681.34;;;19.06;58.94
19884;BME280;10104;50.732;10.174;2023-07-13T00:06:18;97673.59;;;19.10;58.54
19884;BME280;10104;50.732;10.174;2023-07-13T00:08:43;97678.22;;;19.14;57.74
19884;BME280;10104;50.732;10.174;2023-07-13T00:11:04;97692.03;;;18.68;61.33
19884;BME280;10104;50.732;10.174;2023-07-13T00:13:28;97691.13;;;18.79;59.61
19884;BME280;10104;50.732;10.174;2023-07-13T00:15:50;97692.91;;;18.90;59.10
19884;BME280;10104;50.732;10.174;2023-07-13T00:18:12;97699.13;;;18.45;62.24
19884;BME280;10104;50.732;10.174;2023-07-13T00:20:33;97689.75;;;18.59;60.77
19884;BME280;10104;50.732;10.174;2023-07-13T00:22:55;97694.97;;;18.66;59.58
19884;BME280;10104;50.732;10.174;2023-07-13T00:25:16;97705.13;;;18.19;62.85
19884;BME280;10104;50.732;10.174;2023-07-13T00:27:38;97701.81;;;18.29;61.58
19884;BME280;10104;50.732;10.174;2023-07-13T00:30:00;97697.19;;;18.41;60.66
19884;BME280;10104;50.732;10.174;2023-07-13T00:32:22;97712.25;;;17.85;64.61
19884;BME280;10104;50.732;10.174;2023-07-13T00:34:43;97704.38;;;18.07;62.71
19884;BME280;10104;50.732;10.174;2023-07-13T00:37:06;97713.75;;;17.93;63.77
19884;BME280;10104;50.732;10.174;2023-07-13T00:39:28;97702.41;;;18.02;62.40
19884;BME280;10104;50.732;10.174;2023-07-13T00:41:49;97710.97;;;18.16;61.44
19884;BME280;10104;50.732;10.174;2023-07-13T00:44:14;97720.25;;;17.97;64.26
19884;BME280;10104;50.732;10.174;2023-07-13T00:46:36;97714.44;;;18.00;62.77
19884;BME280;10104;50.732;10.174;2023-07-13T00:49:04;97714.28;;;18.06;62.40
19884;BME280;10104;50.732;10.174;2023-07-13T00:51:34;97715.94;;;17.56;66.74
19884;BME280;10104;50.732;10.174;2023-07-13T00:54:00;97721.88;;;17.69;64.80
19884;BME280;10104;50.732;10.174;2023-07-13T00:56:25;97710.53;;;17.79;63.98
19884;BME280;10104;50.732;10.174;2023-07-13T00:58:47;97713.56;;;17.83;63.93
19884;BME280;10104;50.732;10.174;2023-07-13T01:01:09;97718.75;;;17.49;66.22
19884;BME280;10104;50.732;10.174;2023-07-13T01:03:30;97712.22;;;17.57;65.08
19884;BME280;10104;50.732;10.174;2023-07-13T01:05:52;97711.88;;;17.53;65.01
19884;BME280;10104;50.732;10.174;2023-07-13T01:08:15;97714.25;;;17.26;67.18
19884;BME280;10104;50.732;10.174;2023-07-13T01:10:37;97716.31;;;17.48;64.99
19884;BME280;10104;50.732;10.174;2023-07-13T01:13:01;97707.00;;;17.50;65.42
19884;BME280;10104;50.732;10.174;2023-07-13T01:18:02;97720.28;;;17.45;65.63
19884;BME280;10104;50.732;10.174;2023-07-13T01:20:24;97714.84;;;17.17;66.54
19884;BME280;10104;50.732;10.174;2023-07-13T01:22:46;97708.09;;;17.26;65.57
19884;BME280;10104;50.732;10.174;2023-07-13T01:25:07;97717.84;;;17.44;64.63
19884;BME280;10104;50.732;10.174;2023-07-13T01:27:29;97711.66;;;17.43;63.87
19884;BME280;10104;50.732;10.174;2023-07-13T01:29:52;97714.03;;;17.28;65.56
19884;BME280;10104;50.732;10.174;2023-07-13T01:32:17;97720.16;;;17.28;64.85
19884;BME280;10104;50.732;10.174;2023-07-13T01:34:44;97718.78;;;17.26;65.02
19884;BME280;10104;50.732;10.174;2023-07-13T01:37:05;97721.13;;;17.34;64.69
19884;BME280;10104;50.732;10.174;2023-07-13T01:39:27;97713.88;;;17.34;63.79
19884;BME280;10104;50.732;10.174;2023-07-13T01:41:48;97713.41;;;17.37;63.65
19884;BME280;10104;50.732;10.174;2023-07-13T01:44:10;97709.47;;;17.40;63.21
19884;BME280;10104;50.732;10.174;2023-07-13T01:46:32;97717.03;;;17.31;63.51
19884;BME280;10104;50.732;10.174;2023-07-13T01:48:53;97717.50;;;17.28;63.78
19884;BME280;10104;50.732;10.174;2023-07-13T01:51:15;97708.09;;;17.26;63.57
19884;BME280;10104;50.732;10.174;2023-07-13T01:53:37;97718.00;;;17.14;64.46
19884;BME280;10104;50.732;10.174;2023-07-13T01:55:58;97726.59;;;17.04;64.06
19884;BME280;10104;50.732;10.174;2023-07-13T01:58:20;97717.38;;;17.23;63.00
19884;BME280;10104;50.732;10.174;2023-07-13T02:00:42;97717.75;;;17.27;62.41
19884;BME280;10104;50.732;10.174;2023-07-13T02:03:03;97720.16;;;17.28;62.29
19884;BME280;10104;50.732;10.174;2023-07-13T02:05:25;97723.56;;;17.12;63.41
19884;BME280;10104;50.732;10.174;2023-07-13T02:07:47;97732.06;;;16.86;64.41
19884;BME280;10104;50.732;10.174;2023-07-13T02:10:10;97728.94;;;16.77;64.47
19884;BME280;10104;50.732;10.174;2023-07-13T02:12:32;97716.47;;;16.71;64.71
19884;BME280;10104;50.732;10.174;2023-07-13T02:14:53;97716.81;;;16.75;64.01
19884;BME280;10104;50.732;10.174;2023-07-13T02:17:14;97715.56;;;16.89;63.45
19884;BME280;10104;50.732;10.174;2023-07-13T02:19:36;97719.28;;;16.99;63.17
19884;BME280;10104;50.732;10.174;2023-07-13T02:21:58;97722.06;;;16.93;62.88
19884;BME280;10104;50.732;10.174;2023-07-13T02:24:19;97723.47;;;16.72;63.94
19884;BME280;10104;50.732;10.174;2023-07-13T02:26:42;97727.19;;;16.71;63.59
19884;BME280;10104;50.732;10.174;2023-07-13T02:29:04;97731.50;;;16.72;63.57
19884;BME280;10104;50.732;10.174;2023-07-13T02:31:25;97734.13;;;16.61;64.04
19884;BME280;10104;50.732;10.174;2023-07-13T02:33:47;97726.31;;;16.47;64.95
19884;BME280;10104;50.732;10.174;2023-07-13T02:36:09;97725.22;;;16.48;64.31
19884;BME280;10104;50.732;10.174;2023-07-13T02:38:32;97718.50;;;16.46;64.05
19884;BME280;10104;50.732;10.174;2023-07-13T02:40:54;97716.97;;;16.38;64.58
19884;BME280;10104;50.732;10.174;2023-07-13T02:43:16;97719.53;;;16.45;64.41
19884;BME280;10104;50.732;10.174;2023-07-13T02:45:38;97727.06;;;16.36;65.07
19884;BME280;10104;50.732;10.174;2023-07-13T02:48:00;97727.28;;;16.23;65.48
19884;BME280;10104;50.732;10.174;2023-07-13T02:50:22;97732.28;;;16.31;64.55
19884;BME280;10104;50.732;10.174;2023-07-13T02:52:43;97728.47;;;16.39;64.29
19884;BME280;10104;50.732;10.174;2023-07-13T02:55:05;97735.75;;;16.20;64.98
19884;BME280;10104;50.732;10.174;2023-07-13T02:57:27;97736.47;;;16.27;64.24
19884;BME280;10104;50.732;10.174;2023-07-13T02:59:49;97738.34;;;16.38;63.80
19884;BME280;10104;50.732;10.174;2023-07-13T03:02:11;97744.56;;;16.21;64.65
19884;BME280;10104;50.732;10.174;2023-07-13T03:04:32;97747.81;;;15.93;66.42
19884;BME280;10104;50.732;10.174;2023-07-13T03:06:54;97746.47;;;16.02;65.14
19884;BME280;10104;50.732;10.174;2023-07-13T03:09:18;97753.69;;;16.01;64.90
19884;BME280;10104;50.732;10.174;2023-07-13T03:11:40;97753.38;;;16.09;64.64
19884;BME280;10104;50.732;10.174;2023-07-13T03:14:02;97757.06;;;16.08;64.51
19884;BME280;10104;50.732;10.174;2023-07-13T03:16:23;97760.66;;;16.02;64.79
19884;BME280;10104;50.732;10.174;2023-07-13T03:18:46;97768.19;;;16.05;64.51
19884;BME280;10104;50.732;10.174;2023-07-13T03:21:07;97772.09;;;15.91;65.91
19884;BME280;10104;50.732;10.174;2023-07-13T03:23:29;97768.16;;;15.94;65.36
19884;BME280;10104;50.732;10.174;2023-07-13T03:26:01;97767.13;;;15.95;65.25
19884;BME280;10104;50.732;10.174;2023-07-13T03:28:23;97766.94;;;15.78;67.04
19884;BME280;10104;50.732;10.174;2023-07-13T03:30:45;97765.38;;;15.70;67.59
19884;BME280;10104;50.732;10.174;2023-07-13T03:33:07;97768.50;;;15.67;67.47
19884;BME280;10104;50.732;10.174;2023-07-13T03:35:29;97774.94;;;15.60;68.19
19884;BME280;10104;50.732;10.174;2023-07-13T03:37:50;97772.59;;;15.45;68.47
19884;BME280;10104;50.732;10.174;2023-07-13T03:40:13;97773.22;;;15.65;67.42
19884;BME280;10104;50.732;10.174;2023-07-13T03:42:34;97778.28;;;15.73;66.77
19884;BME280;10104;50.732;10.174;2023-07-13T03:44:56;97769.00;;;15.76;66.68
19884;BME280;10104;50.732;10.174;2023-07-13T03:47:18;97788.72;;;15.75;66.65
19884;BME280;10104;50.732;10.174;2023-07-13T03:49:39;97782.63;;;15.86;66.16
19884;BME280;10104;50.732;10.174;2023-07-13T03:52:01;97784.25;;;15.87;65.98
19884;BME280;10104;50.732;10.174;2023-07-13T03:54:22;97794.38;;;15.67;67.78
19884;BME280;10104;50.732;10.174;2023-07-13T03:56:44;97798.81;;;15.73;66.98
19884;BME280;10104;50.732;10.174;2023-07-13T03:59:05;97796.22;;;15.85;66.58
19884;BME280;10104;50.732;10.174;2023-07-13T04:01:27;97794.19;;;15.80;66.69
19884;BME280;10104;50.732;10.174;2023-07-13T04:03:49;97792.06;;;15.70;67.92
19884;BME280;10104;50.732;10.174;2023-07-13T04:06:20;97794.50;;;15.72;67.50
19884;BME280;10104;50.732;10.174;2023-07-13T04:08:42;97794.88;;;15.75;67.43
19884;BME280;10104;50.732;10.174;2023-07-13T04:11:04;97798.28;;;15.83;67.00
19884;BME280;10104;50.732;10.174;2023-07-13T04:13:26;97793.00;;;15.94;66.44
19884;BME280;10104;50.732;10.174;2023-07-13T04:15:48;97790.72;;;15.98;66.33
19884;BME280;10104;50.732;10.174;2023-07-13T04:18:10;97798.50;;;15.81;67.96
19884;BME280;10104;50.732;10.174;2023-07-13T04:20:31;97794.31;;;15.73;68.72
19884;BME280;10104;50.732;10.174;2023-07-13T04:22:53;97800.44;;;15.92;67.21
19884;BME280;10104;50.732;10.174;2023-07-13T04:25:15;97810.06;;;15.93;67.40
19884;BME280;10104;50.732;10.174;2023-07-13T04:27:37;97811.78;;;15.88;67.97
19884;BME280;10104;50.732;10.174;2023-07-13T04:29:59;97802.72;;;16.07;66.72
19884;BME280;10104;50.732;10.174;2023-07-13T04:32:20;97804.78;;;15.87;69.21
19884;BME280;10104;50.732;10.174;2023-07-13T04:34:42;97802.84;;;16.12;67.64
19884;BME280;10104;50.732;10.174;2023-07-13T04:37:04;97806.41;;;16.06;68.26
19884;BME280;10104;50.732;10.174;2023-07-13T04:39:26;97803.44;;;16.14;68.06
19884;BME280;10104;50.732;10.174;2023-07-13T04:41:47;97807.00;;;16.08;69.22
19884;BME280;10104;50.732;10.174;2023-07-13T04:44:08;97809.88;;;16.25;68.02
19884;BME280;10104;50.732;10.174;2023-07-13T04:46:30;97806.84;;;16.21;68.71
19884;BME280;10104;50.732;10.174;2023-07-13T04:48:52;97808.63;;;16.27;68.42
19884;BME280;10104;50.732;10.174;2023-07-13T04:51:15;97808.44;;;16.40;67.40
19884;BME280;10104;50.732;10.174;2023-07-13T04:53:36;97812.16;;;16.39;68.37
19884;BME280;10104;50.732;10.174;2023-07-13T04:55:58;97811.75;;;16.54;67.40
19884;BME280;10104;50.732;10.174;2023-07-13T04:58:20;97804.34;;;16.68;66.96
19884;BME280;10104;50.732;10.174;2023-07-13T05:00:42;97811.00;;;16.77;67.10
19884;BME280;10104;50.732;10.174;2023-07-13T05:03:05;97809.16;;;16.77;67.41
19884;BME280;10104;50.732;10.174;2023-07-13T05:05:27;97812.09;;;16.99;66.77
19884;BME280;10104;50.732;10.174;2023-07-13T05:07:49;97812.88;;;16.88;69.46
19884;BME280;10104;50.732;10.174;2023-07-13T05:10:10;97817.22;;;17.12;67.54
19884;BME280;10104;50.732;10.174;2023-07-13T05:12:32;97815.97;;;17.38;67.21
19884;BME280;10104;50.732;10.174;2023-07-13T05:14:53;97820.72;;;17.48;67.68
19884;BME280;10104;50.732;10.174;2023-07-13T05:17:15;97811.28;;;17.57;66.87
19884;BME280;10104;50.732;10.174;2023-07-13T05:19:36;97816.44;;;17.70;66.80
19884;BME280;10104;50.732;10.174;2023-07-13T05:21:58;97815.38;;;17.83;66.15
19884;BME280;10104;50.732;10.174;2023-07-13T05:24:19;97822.34;;;17.95;65.40
19884;BME280;10104;50.732;10.174;2023-07-13T05:26:46;97816.22;;;18.11;65.33
19884;BME280;10104;50.732;10.174;2023-07-13T05:29:07;97819.09;;;18.22;66.08
19884;BME280;10104;50.732;10.174;2023-07-13T05:31:29;97822.22;;;18.30;65.63
19884;BME280;10104;50.732;10.174;2023-07-13T05:33:50;97808.84;;;18.47;64.97
19884;BME280;10104;50.732;10.174;2023-07-13T05:36:12;97819.34;;;18.48;65.53
19884;BME280;10104;50.732;10.174;2023-07-13T05:38:33;97817.13;;;18.45;67.37
19884;BME280;10104;50.732;10.174;2023-07-13T05:40:56;97821.41;;;18.30;67.46
19884;BME280;10104;50.732;10.174;2023-07-13T05:43:17;97825.84;;;18.24;67.46
19884;BME280;10104;50.732;10.174;2023-07-13T05:45:39;97826.53;;;18.31;67.29
19884;BME280;10104;50.732;10.174;2023-07-13T05:48:01;97822.88;;;18.37;65.82
19884;BME280;10104;50.732;10.174;2023-07-13T05:50:23;97824.75;;;18.37;65.68
19884;BME280;10104;50.732;10.174;2023-07-13T05:52:44;97830.13;;;18.37;64.32
19884;BME280;10104;50.732;10.174;2023-07-13T05:55:06;97826.25;;;18.44;64.24
19884;BME280;10104;50.732;10.174;2023-07-13T05:57:28;97829.47;;;18.46;64.23
19884;BME280;10104;50.732;10.174;2023-07-13T05:59:49;97828.25;;;18.66;62.35
19884;BME280;10104;50.732;10.174;2023-07-13T06:02:11;97831.69;;;18.49;61.49
19884;BME280;10104;50.732;10.174;2023-07-13T06:04:32;97842.75;;;18.53;61.08
19884;BME280;10104;50.732;10.174;2023-07-13T06:06:53;97840.47;;;18.73;59.45
19884;BME280;10104;50.732;10.174;2023-07-13T06:09:15;97847.47;;;18.74;59.35
19884;BME280;10104;50.732;10.174;2023-07-13T06:11:36;97846.00;;;18.83;59.98
19884;BME280;10104;50.732;10.174;2023-07-13T06:13:58;97852.47;;;18.82;58.58
19884;BME280;10104;50.732;10.174;2023-07-13T06:16:20;97848.75;;;18.72;58.66
19884;BME280;10104;50.732;10.174;2023-07-13T06:18:42;97846.88;;;18.72;59.12
19884;BME280;10104;50.732;10.174;2023-07-13T06:21:08;97849.34;;;18.90;58.32
19884;BME280;10104;50.732;10.174;2023-07-13T06:23:30;97850.03;;;18.97;57.44
19884;BME280;10104;50.732;10.174;2023-07-13T06:25:52;97845.78;;;19.02;57.92
19884;BME280;10104;50.732;10.174;2023-07-13T06:28:14;97848.56;;;19.07;57.82
19884;BME280;10104;50.732;10.174;2023-07-13T06:30:38;97857.34;;;19.02;55.80
19884;BME280;10104;50.732;10.174;2023-07-13T06:32:59;97861.81;;;18.96;55.31
19884;BME280;10104;50.732;10.174;2023-07-13T06:35:21;97864.16;;;18.93;55.67
19884;BME280;10104;50.732;10.174;2023-07-13T06:37:43;97864.41;;;18.91;55.36
19884;BME280;10104;50.732;10.174;2023-07-13T06:40:05;97861.41;;;19.05;55.21
19884;BME280;10104;50.732;10.174;2023-07-13T06:42:27;97860.59;;;19.21;55.52
19884;BME280;10104;50.732;10.174;2023-07-13T06:44:48;97867.13;;;19.25;53.73
19884;BME280;10104;50.732;10.174;2023-07-13T06:47:10;97867.34;;;19.40;54.71
19884;BME280;10104;50.732;10.174;2023-07-13T06:49:32;97863.03;;;19.39;53.34
19884;BME280;10104;50.732;10.174;2023-07-13T06:51:53;97868.63;;;19.49;53.54
19884;BME280;10104;50.732;10.174;2023-07-13T06:54:15;97868.19;;;19.57;53.37
19884;BME280;10104;50.732;10.174;2023-07-13T06:56:36;97875.25;;;19.63;53.70
19884;BME280;10104;50.732;10.174;2023-07-13T06:58:58;97879.75;;;19.58;52.77
19884;BME280;10104;50.732;10.174;2023-07-13T07:01:19;97870.63;;;19.59;51.98
19884;BME280;10104;50.732;10.174;2023-07-13T07:03:41;97877.63;;;19.60;52.00
19884;BME280;10104;50.732;10.174;2023-07-13T07:08:31;97883.69;;;19.89;50.63
19884;BME280;10104;50.732;10.174;2023-07-13T07:10:53;97878.47;;;19.82;50.41
19884;BME280;10104;50.732;10.174;2023-07-13T07:13:15;97878.94;;;19.96;50.88
19884;BME280;10104;50.732;10.174;2023-07-13T07:15:37;97870.09;;;20.17;49.96
19884;BME280;10104;50.732;10.174;2023-07-13T07:17:58;97869.16;;;20.28;49.85
19884;BME280;10104;50.732;10.174;2023-07-13T07:20:20;97875.50;;;20.39;49.27
19884;BME280;10104;50.732;10.174;2023-07-13T07:22:41;97881.13;;;20.37;49.14
19884;BME280;10104;50.732;10.174;2023-07-13T07:25:03;97879.81;;;20.40;49.12
19884;BME280;10104;50.732;10.174;2023-07-13T07:27:25;97883.50;;;20.34;48.45
19884;BME280;10104;50.732;10.174;2023-07-13T07:29:50;97884.91;;;20.36;49.40
19884;BME280;10104;50.732;10.174;2023-07-13T07:32:32;97875.94;;;20.52;48.51
19884;BME280;10104;50.732;10.174;2023-07-13T07:34:57;97886.31;;;20.66;48.42
19884;BME280;10104;50.732;10.174;2023-07-13T07:37:19;97883.28;;;20.62;48.75
19884;BME280;10104;50.732;10.174;2023-07-13T07:39:43;97879.75;;;20.83;47.87
19884;BME280;10104;50.732;10.174;2023-07-13T07:42:26;97877.06;;;20.83;48.03
19884;BME280;10104;50.732;10.174;2023-07-13T07:44:47;97879.66;;;21.00;47.96
19884;BME280;10104;50.732;10.174;2023-07-13T07:47:09;97889.97;;;21.08;47.30
19884;BME280;10104;50.732;10.174;2023-07-13T07:49:30;97877.53;;;21.02;46.61
19884;BME280;10104;50.732;10.174;2023-07-13T07:51:52;97876.06;;;20.89;46.67
19884;BME280;10104;50.732;10.174;2023-07-13T07:54:14;97883.34;;;20.94;47.40
19884;BME280;10104;50.732;10.174;2023-07-13T07:56:50;97881.31;;;21.06;46.69
19884;BME280;10104;50.732;10.174;2023-07-13T07:59:14;97881.53;;;20.99;46.63
19884;BME280;10104;50.732;10.174;2023-07-13T08:01:38;97883.75;;;21.08;46.73
19884;BME280;10104;50.732;10.174;2023-07-13T08:04:03;97892.91;;;21.07;46.91
19884;BME280;10104;50.732;10.174;2023-07-13T08:06:27;97885.13;;;21.10;46.31
19884;BME280;10104;50.732;10.174;2023-07-13T08:09:05;97887.22;;;21.03;45.93
19884;BME280;10104;50.732;10.174;2023-07-13T08:11:27;97904.16;;;21.25;46.31
19884;BME280;10104;50.732;10.174;2023-07-13T08:13:51;97899.06;;;21.29;45.26
19884;BME280;10104;50.732;10.174;2023-07-13T08:16:16;97886.19;;;21.36;44.75
19884;BME280;10104;50.732;10.174;2023-07-13T08:18:37;97885.25;;;21.52;45.39
19884;BME280;10104;50.732;10.174;2023-07-13T08:21:04;97882.16;;;21.75;44.50
19884;BME280;10104;50.732;10.174;2023-07-13T08:23:25;97891.16;;;21.91;44.68
19884;BME280;10104;50.732;10.174;2023-07-13T08:25:53;97879.91;;;21.99;44.41
19884;BME280;10104;50.732;10.174;2023-07-13T08:28:15;97888.16;;;21.88;44.68
19884;BME280;10104;50.732;10.174;2023-07-13T08:30:37;97889.34;;;21.97;44.60
19884;BME280;10104;50.732;10.174;2023-07-13T08:32:58;97894.59;;;21.82;43.49
19884;BME280;10104;50.732;10.174;2023-07-13T08:35:20;97883.31;;;21.85;43.46
19884;BME280;10104;50.732;10.174;2023-07-13T08:37:42;97884.38;;;21.84;43.46
19884;BME280;10104;50.732;10.174;2023-07-13T08:40:05;97886.28;;;21.88;44.04
19884;BME280;10104;50.732;10.174;2023-07-13T08:45:17;97893.75;;;22.13;42.95
19884;BME280;10104;50.732;10.174;2023-07-13T08:47:46;97900.16;;;22.02;43.70
19884;BME280;10104;50.732;10.174;2023-07-13T08:50:14;97885.56;;;21.98;42.44
19884;BME280;10104;50.732;10.174;2023-07-13T08:52:40;97893.50;;;22.14;43.47
19884;BME280;10104;50.732;10.174;2023-07-13T08:55:15;97892.13;;;22.12;42.93
19884;BME280;10104;50.732;10.174;2023-07-13T08:57:39;97884.72;;;22.44;42.15
19884;BME280;10104;50.732;10.174;2023-07-13T09:00:02;97897.44;;;22.59;41.17
19884;BME280;10104;50.732;10.174;2023-07-13T09:02:28;97895.38;;;22.76;41.29
19884;BME280;10104;50.732;10.174;2023-07-13T09:05:04;97901.88;;;22.90;41.32
19884;BME280;10104;50.732;10.174;2023-07-13T09:07:53;97894.59;;;22.96;40.81
19884;BME280;10104;50.732;10.174;2023-07-13T09:15:32;97888.69;;;23.34;40.38
19884;BME280;10104;50.732;10.174;2023-07-13T09:18:00;97895.75;;;23.51;39.91
19884;BME280;10104;50.732;10.174;2023-07-13T09:20:30;97890.31;;;23.66;39.89
19884;BME280;10104;50.732;10.174;2023-07-13T09:22:53;97903.56;;;23.52;39.72
19884;BME280;10104;50.732;10.174;2023-07-13T09:27:47;97897.84;;;23.99;38.79
19884;BME280;10104;50.732;10.174;2023-07-13T09:32:51;97903.22;;;24.30;38.79
19884;BME280;10104;50.732;10.174;2023-07-13T09:35:17;97897.63;;;24.65;38.10
19884;BME280;10104;50.732;10.174;2023-07-13T09:37:43;97904.31;;;24.93;37.19
19884;BME280;10104;50.732;10.174;2023-07-13T09:40:13;97886.38;;;25.36;35.64
19884;BME280;10104;50.732;10.174;2023-07-13T09:42:36;97908.91;;;25.31;35.07
19884;BME280;10104;50.732;10.174;2023-07-13T09:45:01;97892.25;;;25.09;35.82
19884;BME280;10104;50.732;10.174;2023-07-13T09:47:33;97904.50;;;25.02;35.61
19884;BME280;10104;50.732;10.174;2023-07-13T09:50:01;97892.09;;;25.34;35.49
19884;BME280;10104;50.732;10.174;2023-07-13T09:52:25;97905.31;;;25.41;35.21
19884;BME280;10104;50.732;10.174;2023-07-13T09:54:49;97897.28;;;25.26;34.67
19884;BME280;10104;50.732;10.174;2023-07-13T09:57:17;97894.56;;;25.26;35.65
19884;BME280;10104;50.732;10.174;2023-07-13T09:59:50;97904.25;;;25.37;35.55
19884;BME280;10104;50.732;10.174;2023-07-13T10:02:33;97912.59;;;25.12;35.40
19884;BME280;10104;50.732;10.174;2023-07-13T10:05:04;97898.19;;;25.16;35.32
19884;BME280;10104;50.732;10.174;2023-07-13T10:07:27;97905.47;;;25.55;36.50
19884;BME280;10104;50.732;10.174;2023-07-13T10:09:54;97906.91;;;25.47;35.49
19884;BME280;10104;50.732;10.174;2023-07-13T10:12:16;97902.09;;;25.73;36.27
19884;BME280;10104;50.732;10.174;2023-07-13T10:14:39;97893.03;;;25.15;35.06
19884;BME280;10104;50.732;10.174;2023-07-13T10:17:04;97897.50;;;25.34;35.24
19884;BME280;10104;50.732;10.174;2023-07-13T10:19:27;97898.94;;;25.90;34.84
19884;BME280;10104;50.732;10.174;2023-07-13T10:21:55;97892.34;;;26.25;33.70
19884;BME280;10104;50.732;10.174;2023-07-13T10:24:21;97895.34;;;26.47;33.85
19884;BME280;10104;50.732;10.174;2023-07-13T10:26:49;97900.47;;;27.10;33.77
19884;BME280;10104;50.732;10.174;2023-07-13T10:29:14;97890.72;;;26.90;33.33
19884;BME280;10104;50.732;10.174;2023-07-13T10:31:38;97904.34;;;26.85;31.44
19884;BME280;10104;50.732;10.174;2023-07-13T10:34:00;97910.72;;;26.56;32.32
19884;BME280;10104;50.732;10.174;2023-07-13T10:36:33;97902.28;;;26.77;32.12
19884;BME280;10104;50.732;10.174;2023-07-13T10:38:57;97899.09;;;26.51;33.40
19884;BME280;10104;50.732;10.174;2023-07-13T10:41:22;97916.03;;;26.43;33.19
19884;BME280;10104;50.732;10.174;2023-07-13T10:43:49;97898.69;;;26.15;32.79
19884;BME280;10104;50.732;10.174;2023-07-13T10:46:14;97906.88;;;27.00;32.88
19884;BME280;10104;50.732;10.174;2023-07-13T10:48:39;97891.81;;;27.26;31.85
19884;BME280;10104;50.732;10.174;2023-07-13T10:51:01;97892.34;;;26.91;31.60
19884;BME280;10104;50.732;10.174;2023-07-13T10:53:33;97903.97;;;27.15;31.06
19884;BME280;10104;50.732;10.174;2023-07-13T10:55:59;97893.34;;;27.32;31.36
19884;BME280;10104;50.732;10.174;2023-07-13T10:58:42;97889.97;;;27.73;31.76
19884;BME280;10104;50.732;10.174;2023-07-13T11:03:32;97895.00;;;27.66;31.05
19884;BME280;10104;50.732;10.174;2023-07-13T11:06:16;97885.53;;;27.45;29.97
19884;BME280;10104;50.732;10.174;2023-07-13T11:08:52;97889.34;;;27.62;30.17
19884;BME280;10104;50.732;10.174;2023-07-13T11:18:37;97893.09;;;27.48;31.41
19884;BME280;10104;50.732;10.174;2023-07-13T11:21:14;97890.97;;;27.63;31.44
19884;BME280;10104;50.732;10.174;2023-07-13T11:24:01;97885.72;;;27.67;30.93
19884;BME280;10104;50.732;10.174;2023-07-13T11:29:25;97891.84;;;28.05;29.97
19884;BME280;10104;50.732;10.174;2023-07-13T11:31:55;97879.13;;;28.00;29.63
19884;BME280;10104;50.732;10.174;2023-07-13T11:34:24;97879.28;;;28.36;29.60
19884;BME280;10104;50.732;10.174;2023-07-13T11:36:47;97889.47;;;28.17;30.47
19884;BME280;10104;50.732;10.174;2023-07-13T11:39:18;97897.94;;;28.29;29.09
19884;BME280;10104;50.732;10.174;2023-07-13T11:41:47;97893.19;;;28.21;29.48
19884;BME280;10104;50.732;10.174;2023-07-13T11:44:16;97897.13;;;28.56;30.24
19884;BME280;10104;50.732;10.174;2023-07-13T11:46:38;97910.25;;;28.54;28.45
19884;BME280;10104;50.732;10.174;2023-07-13T11:49:04;97894.81;;;28.49;28.33
19884;BME280;10104;50.732;10.174;2023-07-13T11:51:30;97894.41;;;28.56;28.37
19884;BME280;10104;50.732;10.174;2023-07-13T11:53:54;97893.00;;;28.45;28.61
19884;BME280;10104;50.732;10.174;2023-07-13T11:56:19;97907.31;;;28.23;28.51
19884;BME280;10104;50.732;10.174;2023-07-13T11:58:41;97904.00;;;28.81;28.90
19884;BME280;10104;50.732;10.174;2023-07-13T12:01:03;97897.81;;;29.25;28.37
19884;BME280;10104;50.732;10.174;2023-07-13T12:03:28;97898.16;;;29.68;27.82
19884;BME280;10104;50.732;10.174;2023-07-13T12:06:02;97907.41;;;30.11;27.46
19884;BME280;10104;50.732;10.174;2023-07-13T12:08:24;97907.19;;;30.39;27.01
19884;BME280;10104;50.732;10.174;2023-07-13T12:10:45;97909.00;;;31.17;26.24
19884;BME280;10104;50.732;10.174;2023-07-13T12:13:09;97915.41;;;30.95;25.65
19884;BME280;10104;50.732;10.174;2023-07-13T12:15:38;97906.44;;;31.64;25.49
19884;BME280;10104;50.732;10.174;2023-07-13T12:18:00;97906.31;;;32.07;25.47
19884;BME280;10104;50.732;10.174;2023-07-13T12:20:27;97912.44;;;33.09;25.26
19884;BME280;10104;50.732;10.174;2023-07-13T12:22:51;97907.03;;;33.21;24.50
19884;BME280;10104;50.732;10.174;2023-07-13T12:25:13;97902.84;;;33.90;23.79
19884;BME280;10104;50.732;10.174;2023-07-13T12:27:36;97905.97;;;33.35;24.31
19884;BME280;10104;50.732;10.174;2023-07-13T12:30:01;97899.53;;;34.66;23.60
19884;BME280;10104;50.732;10.174;2023-07-13T12:32:24;97896.75;;;35.02;22.92
19884;BME280;10104;50.732;10.174;2023-07-13T12:35:07;97906.50;;;34.39;22.75
19884;BME280;10104;50.732;10.174;2023-07-13T12:37:34;97906.53;;;33.61;23.26
19884;BME280;10104;50.732;10.174;2023-07-13T12:39:56;97903.03;;;32.69;23.41
19884;BME280;10104;50.732;10.174;2023-07-13T12:42:22;97904.00;;;33.56;23.00
19884;BME280;10104;50.732;10.174;2023-07-13T12:44:47;97900.34;;;33.85;22.90
19884;BME280;10104;50.732;10.174;2023-07-13T12:47:12;97909.84;;;33.87;23.61
19884;BME280;10104;50.732;10.174;2023-07-13T12:49:41;97910.13;;;32.70;24.35
19884;BME280;10104;50.732;10.174;2023-07-13T12:52:09;97904.22;;;32.21;24.35
19884;BME280;10104;50.732;10.174;2023-07-13T12:54:34;97912.72;;;31.04;25.38
19884;BME280;10104;50.732;10.174;2023-07-13T12:56:59;97911.50;;;30.31;26.62
19884;BME280;10104;50.732;10.174;2023-07-13T12:59:22;97914.22;;;29.92;26.91
19884;BME280;10104;50.732;10.174;2023-07-13T13:01:44;97909.88;;;29.68;27.70
19884;BME280;10104;50.732;10.174;2023-07-13T13:04:09;97914.44;;;31.86;26.67